Time;durP1;ratioP1;P1;durP2;ratioP2;P2;SDS_P1;SDS_P2;PMS_P1;PMS_P2;Temp;Humidity;BMP_temperature;BMP_pressure;BME280_temperature;BME280_humidity;BME280_pressure;Samples;Min_cycle;Max_cycle;Signal;HPM_P1;HPM_P2
2022/07/03 00:01:44;;;;;;;3.30;3.00;;;19.00;96.70;;;;;;4866665;29;20049;-74
2022/07/03 00:04:10;;;;;;;2.88;2.67;;;19.00;96.80;;;;;;4879830;29;20108;-73
2022/07/03 00:06:36;;;;;;;7.15;3.05;;;18.90;97.00;;;;;;4877125;29;20137;-74
2022/07/03 00:09:04;;;;;;;7.45;2.90;;;18.90;97.20;;;;;;4875748;29;20048;-73
2022/07/03 00:11:32;;;;;;;3.63;2.80;;;18.90;97.10;;;;;;4871548;29;20047;-73
2022/07/03 00:13:59;;;;;;;3.03;2.72;;;18.80;97.20;;;;;;4869929;29;21007;-73
2022/07/03 00:16:27;;;;;;;2.92;2.65;;;18.90;96.90;;;;;;4878996;29;20033;-74
2022/07/03 00:19:03;;;;;;;3.17;2.90;;;18.80;97.00;;;;;;4869302;29;20032;-73
2022/07/03 00:21:33;;;;;;;3.53;2.83;;;18.90;97.10;;;;;;4874849;29;20027;-73
2022/07/03 00:24:13;;;;;;;3.63;3.08;;;18.90;97.10;;;;;;4866700;29;20025;-73
2022/07/03 00:26:40;;;;;;;3.95;3.55;;;18.80;97.30;;;;;;4876614;29;20029;-73
2022/07/03 00:29:09;;;;;;;3.35;3.05;;;18.70;97.60;;;;;;4873943;29;20055;-73
2022/07/03 00:31:34;;;;;;;3.20;2.85;;;18.70;97.80;;;;;;4878083;29;20111;-75
2022/07/03 00:34:02;;;;;;;3.05;2.85;;;18.60;97.90;;;;;;4872647;29;20131;-73
2022/07/03 00:36:36;;;;;;;3.40;3.10;;;18.60;98.00;;;;;;4873714;29;20044;-74
2022/07/03 00:39:03;;;;;;;3.95;3.05;;;18.60;98.20;;;;;;4877787;29;20762;-73
2022/07/03 00:41:33;;;;;;;3.53;3.22;;;18.50;98.30;;;;;;4876230;29;20037;-73
2022/07/03 00:51:14;;;;;;;4.38;3.28;;;18.60;98.30;;;;;;4882303;29;20501;-74
2022/07/03 00:53:42;;;;;;;3.30;3.00;;;18.60;98.30;;;;;;4871305;29;20020;-74
2022/07/03 00:56:13;;;;;;;3.88;3.40;;;18.60;98.40;;;;;;4883858;29;20606;-73
2022/07/03 00:58:43;;;;;;;5.40;3.30;;;18.60;98.30;;;;;;4871934;29;20454;-74
2022/07/03 01:01:11;;;;;;;3.53;3.22;;;18.60;98.30;;;;;;4889497;29;20490;-73
2022/07/03 01:03:41;;;;;;;4.22;3.30;;;18.60;98.50;;;;;;4874974;29;20498;-74
2022/07/03 01:06:14;;;;;;;5.07;3.45;;;18.50;98.60;;;;;;4881954;29;20044;-73
2022/07/03 01:08:59;;;;;;;3.40;3.10;;;18.40;98.80;;;;;;4878881;29;20020;-75
2022/07/03 01:11:41;;;;;;;3.58;3.25;;;18.40;99.30;;;;;;4877713;29;20375;-73
2022/07/03 01:14:32;;;;;;;4.30;3.38;;;18.40;99.20;;;;;;4875197;29;20128;-74
2022/07/03 01:17:00;;;;;;;5.38;3.40;;;18.30;99.30;;;;;;4873520;29;20025;-73
2022/07/03 01:19:43;;;;;;;4.72;3.47;;;18.30;99.20;;;;;;4874357;29;20165;-73
2022/07/03 01:22:44;;;;;;;3.90;3.50;;;18.30;99.20;;;;;;4873438;29;20411;-73
2022/07/03 01:25:25;;;;;;;3.85;3.42;;;18.20;99.50;;;;;;4877928;29;20020;-73
2022/07/03 01:28:10;;;;;;;4.15;3.30;;;18.20;99.70;;;;;;4873403;29;20471;-74
2022/07/03 01:30:50;;;;;;;4.38;3.72;;;18.20;99.80;;;;;;4875136;29;20047;-74
2022/07/03 01:33:21;;;;;;;3.70;3.38;;;18.10;99.70;;;;;;4880160;29;20025;-74
2022/07/03 01:36:09;;;;;;;3.83;3.42;;;18.10;99.80;;;;;;4873222;29;20108;-73
2022/07/03 01:38:38;;;;;;;3.63;3.22;;;18.10;99.90;;;;;;4879786;29;20065;-73
2022/07/03 01:41:10;;;;;;;3.72;3.42;;;18.00;99.90;;;;;;4875650;29;20060;-73
2022/07/03 01:43:46;;;;;;;4.10;3.45;;;18.00;99.90;;;;;;4872383;29;20037;-73
2022/07/03 01:46:14;;;;;;;3.97;3.38;;;18.00;99.90;;;;;;4883384;29;20021;-74
2022/07/03 01:48:43;;;;;;;4.53;3.60;;;17.90;99.90;;;;;;4867771;29;20028;-74
2022/07/03 01:51:19;;;;;;;4.43;3.38;;;17.90;99.90;;;;;;4870572;29;20032;-73
2022/07/03 01:53:52;;;;;;;4.38;3.97;;;17.90;99.90;;;;;;4866399;29;20021;-74
2022/07/03 01:56:21;;;;;;;3.40;3.10;;;17.90;99.90;;;;;;4897752;29;20056;-73
2022/07/03 01:58:49;;;;;;;3.78;3.45;;;17.80;99.90;;;;;;4871321;29;20035;-73
2022/07/03 02:01:45;;;;;;;4.25;3.85;;;17.80;99.90;;;;;;4876591;29;20059;-74
2022/07/03 02:04:49;;;;;;;3.88;3.58;;;17.80;99.90;;;;;;4876242;29;20021;-74
2022/07/03 02:07:28;;;;;;;4.03;3.63;;;17.80;99.90;;;;;;4867293;29;20040;-74
2022/07/03 02:10:13;;;;;;;4.30;3.90;;;17.80;99.90;;;;;;4871995;29;20072;-73
2022/07/03 02:12:51;;;;;;;4.30;3.80;;;17.80;99.90;;;;;;4873638;29;20540;-73
2022/07/03 02:15:25;;;;;;;7.75;4.18;;;17.80;99.90;;;;;;4876004;29;20025;-74
2022/07/03 02:17:54;;;;;;;4.30;3.90;;;17.80;99.90;;;;;;4865779;29;20025;-73
2022/07/03 02:20:22;;;;;;;4.13;3.72;;;17.80;99.90;;;;;;4875257;29;20057;-74
2022/07/03 02:22:59;;;;;;;4.15;3.75;;;17.80;99.90;;;;;;4867218;29;20020;-74
2022/07/03 02:25:34;;;;;;;4.70;4.00;;;17.80;99.90;;;;;;4874169;29;20020;-73
2022/07/03 02:28:11;;;;;;;4.40;4.00;;;17.70;99.90;;;;;;4871862;29;20494;-74
2022/07/03 02:30:41;;;;;;;4.35;3.80;;;17.80;99.90;;;;;;4871525;29;20032;-74
2022/07/03 02:33:11;;;;;;;4.75;4.00;;;17.70;99.90;;;;;;4881611;29;20125;-73
2022/07/03 02:35:40;;;;;;;4.80;3.78;;;17.70;99.90;;;;;;4870203;29;20731;-73
2022/07/03 02:38:21;;;;;;;4.35;3.95;;;17.60;99.90;;;;;;4877103;29;20032;-74
2022/07/03 02:41:12;;;;;;;5.25;4.28;;;17.60;99.90;;;;;;4871019;29;20029;-74
2022/07/03 02:43:41;;;;;;;4.20;3.80;;;17.60;99.90;;;;;;4873604;29;20024;-74
2022/07/03 02:49:40;;;;;;;4.70;3.55;;;17.60;99.90;;;;;;4872260;29;20039;-73
2022/07/03 02:52:30;;;;;;;4.22;3.83;;;17.60;99.90;;;;;;4866131;29;21532;-73
2022/07/03 02:55:04;;;;;;;4.40;4.00;;;17.60;99.90;;;;;;4865542;29;20028;-74
2022/07/03 02:57:40;;;;;;;5.50;4.47;;;17.60;99.90;;;;;;4875216;29;20119;-73
2022/07/03 03:00:11;;;;;;;5.28;4.40;;;17.60;99.90;;;;;;4874793;29;20025;-74
2022/07/03 03:02:53;;;;;;;4.22;3.83;;;17.60;99.90;;;;;;4881926;29;20141;-74
2022/07/03 03:05:19;;;;;;;5.07;4.00;;;17.60;99.90;;;;;;4875630;29;20029;-73
2022/07/03 03:08:01;;;;;;;6.00;4.30;;;17.60;99.90;;;;;;4882817;29;20513;-73
2022/07/03 03:10:28;;;;;;;6.13;4.63;;;17.60;99.90;;;;;;4877866;29;20573;-74
2022/07/03 03:13:13;;;;;;;5.22;4.60;;;17.60;99.90;;;;;;4877272;29;20025;-74
2022/07/03 03:15:58;;;;;;;4.57;4.00;;;17.60;99.90;;;;;;4893496;29;20072;-74
2022/07/03 03:18:28;;;;;;;4.20;3.80;;;17.60;99.90;;;;;;4872253;29;20029;-73
2022/07/03 03:20:58;;;;;;;5.47;4.10;;;17.60;99.90;;;;;;4870318;29;20021;-74
2022/07/03 03:23:51;;;;;;;5.68;4.10;;;17.60;99.90;;;;;;4871895;29;20116;-74
2022/07/03 03:26:22;;;;;;;5.32;4.38;;;17.50;99.90;;;;;;4880575;29;20043;-75
2022/07/03 03:28:52;;;;;;;4.72;4.22;;;17.60;99.90;;;;;;4870028;29;20096;-74
2022/07/03 03:31:21;;;;;;;4.10;3.70;;;17.60;99.90;;;;;;4871916;29;20040;-74
2022/07/03 03:33:49;;;;;;;4.50;3.85;;;17.60;99.90;;;;;;4874011;29;20028;-74
2022/07/03 03:36:18;;;;;;;5.50;4.15;;;17.60;99.90;;;;;;4877208;29;20025;-73
2022/07/03 03:38:45;;;;;;;5.13;4.30;;;17.70;99.90;;;;;;4898249;29;20028;-73
2022/07/03 03:41:16;;;;;;;5.93;4.35;;;17.70;99.90;;;;;;4874435;29;20116;-74
2022/07/03 03:43:44;;;;;;;5.03;4.20;;;17.70;99.90;;;;;;4883803;29;20048;-74
2022/07/03 03:46:11;;;;;;;5.38;4.43;;;17.70;99.90;;;;;;4875964;29;20024;-73
2022/07/03 03:48:42;;;;;;;4.80;4.18;;;17.80;99.90;;;;;;4876038;29;20028;-73
2022/07/03 03:51:08;;;;;;;5.00;4.05;;;17.90;99.90;;;;;;4873922;29;20121;-74
2022/07/03 03:53:34;;;;;;;5.93;4.15;;;17.90;99.90;;;;;;4877759;29;20073;-73
2022/07/03 03:56:04;;;;;;;5.80;4.40;;;18.00;99.90;;;;;;4868453;29;20044;-75
2022/07/03 03:58:33;;;;;;;4.75;4.25;;;18.10;99.90;;;;;;4880470;29;20029;-74
2022/07/03 04:01:03;;;;;;;5.53;4.00;;;18.20;99.90;;;;;;4868958;29;20074;-74
2022/07/03 04:03:29;;;;;;;4.95;4.45;;;18.30;99.90;;;;;;4878417;29;20028;-74
2022/07/03 04:05:56;;;;;;;6.65;4.25;;;18.50;99.90;;;;;;4872593;29;20032;-74
2022/07/03 04:08:25;;;;;;;5.18;4.40;;;18.60;99.90;;;;;;4880942;29;20446;-73
2022/07/03 04:10:51;;;;;;;5.50;4.38;;;18.70;99.90;;;;;;4877767;29;20068;-73
2022/07/03 04:13:21;;;;;;;5.18;4.50;;;18.70;99.90;;;;;;4877845;29;20052;-73
2022/07/03 04:15:49;;;;;;;4.53;4.13;;;18.60;99.90;;;;;;4873154;29;20037;-73
2022/07/03 04:18:15;;;;;;;5.97;4.28;;;18.60;99.90;;;;;;4874095;29;20021;-73
2022/07/03 04:20:41;;;;;;;4.40;4.00;;;18.70;99.90;;;;;;4877680;29;20028;-73
2022/07/03 04:23:10;;;;;;;;;;;18.80;99.90;;;;;;4870372;29;20043;-74
2022/07/03 04:25:42;;;;;;;4.82;4.43;;;18.90;99.90;;;;;;4879022;29;19915;-73
2022/07/03 04:28:12;;;;;;;6.93;4.40;;;19.00;99.90;;;;;;4874534;29;20024;-73
2022/07/03 04:30:38;;;;;;;5.28;4.40;;;19.10;99.90;;;;;;4879199;29;20049;-73
2022/07/03 04:33:05;;;;;;;4.65;4.18;;;19.20;99.90;;;;;;4869862;29;20043;-74
2022/07/03 04:35:33;;;;;;;4.18;3.75;;;19.40;99.90;;;;;;4878624;29;20041;-73
2022/07/03 04:37:59;;;;;;;4.95;3.78;;;19.60;99.60;;;;;;4871470;29;20033;-73
2022/07/03 04:40:26;;;;;;;3.95;3.55;;;19.70;99.00;;;;;;4878954;29;20453;-73
2022/07/03 04:42:58;;;;;;;5.72;4.18;;;19.70;98.70;;;;;;4870698;29;20103;-74
2022/07/03 04:45:26;;;;;;;4.88;3.25;;;19.80;98.70;;;;;;4871143;29;20402;-73
2022/07/03 04:47:53;;;;;;;4.65;4.25;;;19.90;98.40;;;;;;4869381;29;20081;-73
2022/07/03 04:50:19;;;;;;;5.75;4.18;;;20.00;98.10;;;;;;4873439;29;20035;-73
2022/07/03 04:52:45;;;;;;;5.80;3.85;;;20.00;98.00;;;;;;4870849;29;20029;-74
2022/07/03 04:55:12;;;;;;;4.97;3.78;;;20.10;97.80;;;;;;4875608;29;20511;-74
2022/07/03 04:57:39;;;;;;;;;;;20.20;97.40;;;;;;4876805;29;20029;-73
2022/07/03 05:00:08;;;;;;;5.35;4.13;;;20.20;97.60;;;;;;4874977;29;19915;-77
2022/07/03 05:02:35;;;;;;;5.57;4.15;;;19.90;98.10;;;;;;4878534;29;20025;-77
2022/07/03 05:05:03;;;;;;;4.68;3.67;;;20.00;99.10;;;;;;4874595;29;20031;-76
2022/07/03 05:07:29;;;;;;;4.95;4.32;;;20.10;99.40;;;;;;4874513;29;20028;-76
2022/07/03 05:09:56;;;;;;;5.03;4.07;;;20.10;98.30;;;;;;4872002;29;20035;-77
2022/07/03 05:12:23;;;;;;;4.32;3.92;;;20.40;98.60;;;;;;4874989;29;20116;-76
2022/07/03 05:14:48;;;;;;;5.15;3.90;;;20.60;97.40;;;;;;4875838;29;20033;-77
2022/07/03 05:17:19;;;;;;;4.25;3.30;;;20.90;96.60;;;;;;4870787;29;20471;-77
2022/07/03 05:20:23;;;;;;;5.75;3.63;;;21.00;96.80;;;;;;4874342;29;20037;-77
2022/07/03 05:22:40;;;;;;;4.40;4.00;;;20.90;96.00;;;;;;4875486;29;20382;-77
2022/07/03 05:25:16;;;;;;;4.20;3.50;;;21.20;95.70;;;;;;4872080;29;20029;-77
2022/07/03 05:27:42;;;;;;;4.10;3.80;;;21.30;94.80;;;;;;4875591;29;20039;-77
2022/07/03 05:30:08;;;;;;;4.25;3.70;;;21.70;94.70;;;;;;4872206;29;20060;-77
2022/07/03 05:32:39;;;;;;;5.75;3.90;;;21.80;94.40;;;;;;4873814;29;20052;-77
2022/07/03 05:35:05;;;;;;;4.60;4.03;;;22.00;93.90;;;;;;4871792;29;20032;-76
2022/07/03 05:37:43;;;;;;;;;;;21.80;93.80;;;;;;4876215;29;20032;-76
2022/07/03 05:40:12;;;;;;;4.70;3.58;;;21.70;94.40;;;;;;4879607;29;19927;-77
2022/07/03 05:42:40;;;;;;;4.15;3.60;;;21.60;93.90;;;;;;4879358;29;20033;-77
2022/07/03 05:45:09;;;;;;;4.43;4.00;;;21.60;93.40;;;;;;4870293;29;20155;-77
2022/07/03 05:47:39;;;;;;;4.30;3.90;;;21.70;93.40;;;;;;4871104;29;20551;-77
2022/07/03 05:50:06;;;;;;;4.50;3.63;;;21.70;93.10;;;;;;4867252;29;20924;-77
2022/07/03 05:52:35;;;;;;;;;;;22.00;93.70;;;;;;4869071;29;20056;-76
2022/07/03 05:55:01;;;;;;;3.45;3.15;;;22.50;92.70;;;;;;4864914;29;20034;-77
2022/07/03 05:57:29;;;;;;;;;;;23.80;91.60;;;;;;4872096;29;20123;-76
2022/07/03 06:00:02;;;;;;;3.38;3.08;;;24.90;88.80;;;;;;4867327;29;19935;-77
2022/07/03 06:02:29;;;;;;;3.75;3.40;;;25.70;84.30;;;;;;4875288;29;20036;-77
2022/07/03 06:04:59;;;;;;;3.50;2.92;;;24.90;84.70;;;;;;4872443;29;20027;-76
2022/07/03 06:07:27;;;;;;;3.22;2.92;;;25.10;84.70;;;;;;4873763;29;20028;-77
2022/07/03 06:09:54;;;;;;;3.38;3.08;;;25.10;83.40;;;;;;4869871;29;20079;-77
2022/07/03 06:12:24;;;;;;;3.80;3.40;;;24.90;86.70;;;;;;4875292;29;20049;-77
2022/07/03 06:14:50;;;;;;;3.42;3.08;;;24.50;85.30;;;;;;4872309;29;20692;-78
2022/07/03 06:17:16;;;;;;;3.58;3.28;;;24.50;85.70;;;;;;4874253;29;20152;-79
2022/07/03 06:19:47;;;;;;;;;;;24.20;86.00;;;;;;4871826;29;20085;-78
2022/07/03 06:22:16;;;;;;;3.75;3.20;;;23.80;86.90;;;;;;4864892;29;19911;-79
2022/07/03 06:24:43;;;;;;;3.83;3.45;;;23.90;87.70;;;;;;4877084;29;20032;-79
2022/07/03 06:27:08;;;;;;;3.47;3.17;;;24.90;86.20;;;;;;4871481;29;20021;-79
2022/07/03 06:29:37;;;;;;;;;;;25.50;85.40;;;;;;4870812;29;20021;-78
2022/07/03 06:32:04;;;;;;;3.55;3.25;;;25.00;83.60;;;;;;4870144;29;19926;-79
2022/07/03 06:34:34;;;;;;;3.13;2.83;;;25.20;83.30;;;;;;4876564;29;20056;-80
2022/07/03 06:36:59;;;;;;;3.90;3.60;;;25.60;83.30;;;;;;4872926;29;20065;-79
2022/07/03 06:39:31;;;;;;;;;;;25.40;82.20;;;;;;4879993;29;20104;-79
2022/07/03 06:42:00;;;;;;;3.45;2.95;;;25.60;82.60;;;;;;4876388;29;19914;-76
2022/07/03 06:44:33;;;;;;;3.58;3.28;;;25.90;81.20;;;;;;4874571;29;20813;-75
2022/07/03 06:47:02;;;;;;;3.20;3.00;;;26.30;80.50;;;;;;4871906;29;20051;-75
2022/07/03 06:49:33;;;;;;;3.05;2.85;;;25.80;80.00;;;;;;4867747;29;20029;-80
2022/07/03 06:51:59;;;;;;;3.20;2.80;;;25.90;80.70;;;;;;4866574;29;20060;-80
2022/07/03 06:54:25;;;;;;;2.97;2.70;;;26.90;78.20;;;;;;4871617;29;20033;-78
2022/07/03 06:56:53;;;;;;;2.85;2.60;;;28.80;72.70;;;;;;4872834;29;20049;-77
2022/07/03 06:59:19;;;;;;;2.47;2.13;;;29.10;70.40;;;;;;4871175;29;20025;-77
2022/07/03 07:01:49;;;;;;;3.45;2.47;;;27.90;72.50;;;;;;4881234;29;20624;-77
2022/07/03 07:04:15;;;;;;;3.67;2.80;;;27.40;70.10;;;;;;4873981;29;20025;-78
2022/07/03 07:06:49;;;;;;;3.03;2.50;;;26.50;74.00;;;;;;4877633;29;20029;-77
2022/07/03 07:09:23;;;;;;;2.40;2.20;;;26.60;74.60;;;;;;4876948;29;20384;-77
2022/07/03 07:11:53;;;;;;;2.33;2.13;;;28.00;74.30;;;;;;4875294;29;20769;-83
2022/07/03 07:14:19;;;;;;;2.28;2.17;;;30.20;67.70;;;;;;4871091;29;20021;-84
2022/07/03 07:16:45;;;;;;;2.92;2.60;;;31.50;63.90;;;;;;4877356;29;20029;-83
2022/07/03 07:19:19;;;;;;;2.70;2.50;;;30.50;65.30;;;;;;4875679;29;20033;-82
2022/07/03 07:21:47;;;;;;;2.90;2.60;;;29.70;66.60;;;;;;4881862;29;20375;-84
2022/07/03 07:24:14;;;;;;;3.97;2.97;;;28.20;70.40;;;;;;4870873;29;20049;-77
2022/07/03 07:26:44;;;;;;;3.15;2.88;;;27.50;72.90;;;;;;4875789;29;20481;-79
2022/07/03 07:29:11;;;;;;;3.40;2.80;;;27.50;72.80;;;;;;4867517;29;20495;-79
2022/07/03 07:31:45;;;;;;;3.22;2.92;;;28.20;71.70;;;;;;4881863;29;20497;-81
2022/07/03 07:34:13;;;;;;;3.58;2.70;;;27.90;71.60;;;;;;4873365;29;20525;-79
2022/07/03 07:36:48;;;;;;;2.92;2.72;;;28.20;72.40;;;;;;4874766;29;20025;-81
2022/07/03 07:39:15;;;;;;;4.40;2.92;;;28.40;71.50;;;;;;4875453;29;20032;-78
2022/07/03 07:41:47;;;;;;;3.33;3.05;;;28.20;71.10;;;;;;4876943;29;20084;-77
2022/07/03 07:44:16;;;;;;;3.60;2.70;;;28.80;70.90;;;;;;4878989;29;20509;-78
2022/07/03 07:46:41;;;;;;;3.42;2.80;;;28.30;71.10;;;;;;4877302;29;20084;-78
2022/07/03 07:49:09;;;;;;;3.00;2.80;;;28.60;70.20;;;;;;4873928;29;20044;-77
2022/07/03 07:51:38;;;;;;;3.03;2.83;;;28.60;70.60;;;;;;4875550;29;20028;-77
2022/07/03 07:54:11;;;;;;;3.28;2.55;;;28.10;71.30;;;;;;4869140;29;20514;-77
2022/07/03 07:56:38;;;;;;;2.78;2.58;;;29.40;71.30;;;;;;4873864;29;20521;-77
2022/07/03 07:59:04;;;;;;;3.85;3.33;;;30.90;67.80;;;;;;4868224;29;20084;-78
2022/07/03 08:07:17;;;;;;;3.58;2.65;;;34.70;60.10;;;;;;4878175;29;20108;-78
2022/07/03 08:09:45;;;;;;;2.80;2.60;;;35.70;57.50;;;;;;4894118;29;20037;-78
2022/07/03 08:12:10;;;;;;;5.53;4.45;;;36.40;55.90;;;;;;4871676;29;20025;-78
2022/07/03 08:14:37;;;;;;;2.35;2.15;;;36.30;54.60;;;;;;4873235;29;21356;-79
2022/07/03 08:17:04;;;;;;;2.50;2.30;;;36.20;53.90;;;;;;4872642;29;20028;-80
2022/07/03 08:19:29;;;;;;;2.38;2.20;;;34.70;53.70;;;;;;4877172;29;20032;-73
2022/07/03 08:21:55;;;;;;;3.92;2.28;;;33.40;56.50;;;;;;4870376;29;20378;-74
2022/07/03 08:24:21;;;;;;;2.38;2.22;;;31.60;57.20;;;;;;4869543;29;20024;-73
2022/07/03 08:26:46;;;;;;;1.90;1.80;;;32.40;57.50;;;;;;4872036;29;20031;-74
2022/07/03 08:29:12;;;;;;;2.17;2.00;;;34.20;55.50;;;;;;4866568;29;20039;-73
2022/07/03 08:31:38;;;;;;;2.03;1.92;;;35.80;53.10;;;;;;4873946;29;20546;-73
2022/07/03 08:34:03;;;;;;;3.97;1.65;;;36.00;51.50;;;;;;4875035;29;20025;-73
2022/07/03 08:36:29;;;;;;;2.63;2.00;;;36.70;51.20;;;;;;4872162;29;20033;-73
2022/07/03 08:38:56;;;;;;;2.58;2.35;;;37.80;50.40;;;;;;4880763;29;20363;-73
2022/07/03 08:41:26;;;;;;;2.38;1.77;;;36.00;50.50;;;;;;4868744;29;20113;-73
2022/07/03 08:43:54;;;;;;;2.55;2.33;;;35.70;51.60;;;;;;4876450;29;20032;-74
2022/07/03 08:46:20;;;;;;;2.50;2.00;;;37.00;49.30;;;;;;4871127;29;20116;-73
2022/07/03 08:48:47;;;;;;;2.45;2.10;;;37.50;49.10;;;;;;4869619;29;20060;-73
2022/07/03 08:51:14;;;;;;;2.00;1.90;;;36.50;49.70;;;;;;4871939;29;20052;-74
2022/07/03 08:53:39;;;;;;;1.83;1.70;;;37.40;49.60;;;;;;4872716;29;20104;-73
2022/07/03 08:56:08;;;;;;;2.10;1.90;;;38.40;48.60;;;;;;4866260;29;20103;-74
2022/07/03 08:58:34;;;;;;;3.22;2.25;;;38.80;47.70;;;;;;4871503;29;20667;-73
2022/07/03 09:01:01;;;;;;;2.40;2.20;;;38.70;47.40;;;;;;4865514;29;20039;-74
2022/07/03 09:03:28;;;;;;;1.90;1.80;;;37.90;48.70;;;;;;4877390;29;20053;-74
2022/07/03 09:05:53;;;;;;;2.00;1.80;;;38.80;47.30;;;;;;4871933;29;20029;-73
2022/07/03 09:08:20;;;;;;;3.30;1.80;;;39.40;46.90;;;;;;4871429;29;20084;-73
2022/07/03 09:10:46;;;;;;;2.20;1.90;;;39.10;45.10;;;;;;4873622;29;20136;-73
2022/07/03 09:13:12;;;;;;;2.25;1.90;;;38.50;46.00;;;;;;4871494;29;20116;-73
2022/07/03 09:15:38;;;;;;;2.05;1.85;;;38.10;46.40;;;;;;4873529;29;20097;-73
2022/07/03 09:18:07;;;;;;;3.20;2.03;;;38.10;46.60;;;;;;4869683;29;20047;-74
2022/07/03 09:20:35;;;;;;;1.80;1.70;;;38.20;47.10;;;;;;4874021;29;20474;-73
2022/07/03 09:23:17;;;;;;;2.08;1.90;;;37.80;46.70;;;;;;4866813;29;20526;-73
2022/07/03 09:25:58;;;;;;;2.20;2.00;;;39.40;46.50;;;;;;4871673;29;20025;-73
2022/07/03 09:28:43;;;;;;;2.42;1.90;;;40.40;44.90;;;;;;4869532;29;20029;-73
2022/07/03 09:31:09;;;;;;;1.83;1.73;;;39.90;44.70;;;;;;4866604;29;20064;-73
2022/07/03 09:33:35;;;;;;;1.92;1.83;;;41.10;44.50;;;;;;4875037;29;20112;-73
2022/07/03 09:36:00;;;;;;;2.55;1.70;;;41.20;44.40;;;;;;4871445;29;20035;-73
2022/07/03 09:38:26;;;;;;;2.30;2.00;;;42.40;43.80;;;;;;4873647;29;20382;-73
2022/07/03 09:40:55;;;;;;;2.72;1.80;;;41.90;43.40;;;;;;4875141;29;20398;-70
2022/07/03 09:43:29;;;;;;;3.80;2.00;;;41.30;44.20;;;;;;4870193;29;20029;-73
2022/07/03 09:46:01;;;;;;;2.28;2.08;;;42.40;44.00;;;;;;4869308;29;20021;-73
2022/07/03 09:48:33;;;;;;;1.92;1.83;;;42.30;43.10;;;;;;4869593;29;20049;-73
2022/07/03 09:51:17;;;;;;;2.47;1.90;;;41.80;43.80;;;;;;4872554;29;20767;-73
2022/07/03 09:54:00;;;;;;;2.20;2.05;;;42.30;43.80;;;;;;4874119;29;20116;-74
2022/07/03 09:56:34;;;;;;;2.10;2.00;;;42.90;42.60;;;;;;4868396;29;20037;-74
2022/07/03 09:59:15;;;;;;;5.45;1.95;;;43.20;42.60;;;;;;4869756;29;20167;-74
2022/07/03 10:01:45;;;;;;;1.85;1.75;;;43.80;42.20;;;;;;4870652;29;20025;-74
2022/07/03 10:04:22;;;;;;;2.22;2.03;;;44.00;42.30;;;;;;4878850;29;20048;-74
2022/07/03 10:06:56;;;;;;;3.15;2.22;;;43.40;42.50;;;;;;4869178;29;20016;-74
2022/07/03 10:09:27;;;;;;;3.38;2.30;;;44.30;41.70;;;;;;4873631;29;20116;-74
2022/07/03 10:11:56;;;;;;;3.67;1.80;;;44.60;41.40;;;;;;4868426;29;20036;-73
2022/07/03 10:14:26;;;;;;;2.05;1.92;;;45.40;41.30;;;;;;4872130;29;20163;-73
2022/07/03 10:16:52;;;;;;;3.35;2.08;;;44.60;40.10;;;;;;4874169;29;20687;-73
2022/07/03 10:19:19;;;;;;;2.42;2.22;;;43.70;41.70;;;;;;4869818;29;20454;-73
2022/07/03 10:21:53;;;;;;;3.40;2.72;;;44.20;41.80;;;;;;4871160;29;20025;-73
2022/07/03 10:24:20;;;;;;;2.35;1.85;;;44.50;40.90;;;;;;4867832;29;20377;-74
2022/07/03 10:26:47;;;;;;;2.90;2.00;;;44.60;40.80;;;;;;4870619;29;20024;-74
2022/07/03 10:29:16;;;;;;;2.30;2.10;;;45.30;40.50;;;;;;4862823;29;20059;-74
2022/07/03 10:31:45;;;;;;;2.05;1.95;;;43.40;40.80;;;;;;4864520;29;20439;-75
2022/07/03 10:34:16;;;;;;;2.35;1.90;;;44.10;41.30;;;;;;4880233;29;20029;-74
2022/07/03 10:36:44;;;;;;;2.97;1.95;;;45.40;40.60;;;;;;4875222;29;20049;-74
2022/07/03 10:39:23;;;;;;;4.45;2.20;;;45.90;40.00;;;;;;4881917;29;20032;-76
2022/07/03 10:45:06;;;;;;;2.25;2.10;;;45.90;39.40;;;;;;4876546;29;20040;-76
2022/07/03 10:47:48;;;;;;;2.00;1.90;;;46.60;39.50;;;;;;4877510;29;20024;-75
2022/07/03 10:50:21;;;;;;;3.00;1.90;;;46.20;39.40;;;;;;4878049;29;20016;-75
2022/07/03 10:52:48;;;;;;;2.63;1.88;;;45.60;39.30;;;;;;4867298;29;20108;-75
2022/07/03 10:55:15;;;;;;;2.63;1.92;;;45.20;39.50;;;;;;4878219;29;20474;-75
2022/07/03 10:58:07;;;;;;;2.13;1.95;;;44.80;39.60;;;;;;4872652;29;20040;-75
2022/07/03 11:00:55;;;;;;;4.15;2.38;;;44.30;40.30;;;;;;4879179;29;20060;-73
2022/07/03 11:03:55;;;;;;;2.45;2.25;;;41.80;41.90;;;;;;4875409;29;20021;-74
2022/07/03 11:06:42;;;;;;;2.90;2.28;;;39.10;44.60;;;;;;4899269;29;20108;-74
2022/07/03 11:09:11;;;;;;;2.20;2.03;;;36.80;47.30;;;;;;4876085;29;20041;-74
2022/07/03 11:11:57;;;;;;;2.80;2.60;;;35.40;49.60;;;;;;4872070;29;20031;-75
2022/07/03 11:14:25;;;;;;;2.38;2.28;;;34.10;51.60;;;;;;4874887;29;20486;-75
2022/07/03 11:17:21;;;;;;;2.47;2.28;;;33.50;52.70;;;;;;4876900;29;20029;-75
2022/07/03 11:23:07;;;;;;;2.97;2.25;;;32.70;52.90;;;;;;4875129;29;20051;-75
2022/07/03 11:25:48;;;;;;;2.47;2.10;;;32.60;53.90;;;;;;4874716;29;20021;-75
2022/07/03 11:28:34;;;;;;;2.45;2.20;;;32.40;54.40;;;;;;4872800;29;20414;-75
2022/07/03 11:31:15;;;;;;;2.70;2.50;;;32.40;54.30;;;;;;4880483;29;20047;-75
2022/07/03 11:33:53;;;;;;;2.40;2.20;;;32.10;55.10;;;;;;4889156;29;20021;-77
2022/07/03 11:36:22;;;;;;;2.67;2.33;;;31.80;55.50;;;;;;4873421;29;20051;-75
2022/07/03 11:38:55;;;;;;;2.53;2.33;;;31.90;56.50;;;;;;4877020;29;20025;-75
2022/07/03 11:41:22;;;;;;;2.30;2.10;;;31.70;55.80;;;;;;4875273;29;20057;-75
2022/07/03 11:43:56;;;;;;;2.30;2.10;;;31.70;56.40;;;;;;4881694;29;20032;-75
2022/07/03 11:46:27;;;;;;;2.42;2.28;;;31.80;56.70;;;;;;4872198;29;20056;-75
2022/07/03 11:49:15;;;;;;;3.72;2.40;;;31.70;56.50;;;;;;4876876;29;20021;-75
2022/07/03 11:51:54;;;;;;;2.58;2.38;;;31.70;56.00;;;;;;4874677;29;20039;-74
2022/07/03 11:54:20;;;;;;;2.85;2.20;;;31.70;56.50;;;;;;4870678;29;20029;-74
2022/07/03 11:56:47;;;;;;;3.53;2.47;;;31.60;56.20;;;;;;4882295;29;20185;-75
2022/07/03 11:59:14;;;;;;;3.13;2.63;;;31.50;56.70;;;;;;4874599;29;20037;-75
2022/07/03 12:01:41;;;;;;;3.22;2.53;;;31.50;57.10;;;;;;4874161;29;20667;-76
2022/07/03 12:04:23;;;;;;;2.60;2.40;;;31.70;57.60;;;;;;4879499;29;20024;-75
2022/07/03 12:06:52;;;;;;;3.70;3.30;;;31.60;57.20;;;;;;4874099;29;20021;-75
2022/07/03 12:09:30;;;;;;;3.08;2.58;;;31.60;57.10;;;;;;4879306;29;20020;-75
2022/07/03 12:12:03;;;;;;;2.58;2.22;;;31.60;55.40;;;;;;4873658;29;20017;-75
2022/07/03 12:14:50;;;;;;;2.63;2.42;;;31.60;55.70;;;;;;4880842;29;20025;-87
2022/07/03 12:17:26;;;;;;;2.55;2.35;;;31.40;55.70;;;;;;4881146;29;20029;-89
2022/07/03 12:19:58;;;;;;;2.50;2.30;;;31.10;56.50;;;;;;4884340;29;20116;-89
2022/07/03 12:22:44;;;;;;;2.70;2.50;;;31.10;57.10;;;;;;4879750;29;20024;-88
2022/07/03 12:25:12;;;;;;;2.97;2.47;;;31.10;57.60;;;;;;4879060;29;20075;-88
2022/07/03 12:27:48;;;;;;;2.50;2.30;;;31.10;57.30;;;;;;4877091;29;20370;-87
2022/07/03 12:30:27;;;;;;;2.85;2.35;;;31.20;57.00;;;;;;4885809;29;20033;-87
2022/07/03 12:32:53;;;;;;;2.95;2.17;;;31.10;56.60;;;;;;4884452;29;20040;-88
2022/07/03 12:35:24;;;;;;;2.70;2.45;;;31.20;57.10;;;;;;4890715;29;20033;-89
2022/07/03 12:38:28;;;;;;;2.67;2.25;;;31.30;56.70;;;;;;4884867;29;20032;-89
2022/07/03 12:41:11;;;;;;;2.33;2.13;;;31.40;55.30;;;;;;4882573;29;20036;-86
2022/07/03 12:43:44;;;;;;;3.38;2.30;;;31.50;54.90;;;;;;4887350;29;20032;-89
2022/07/03 12:46:36;;;;;;;2.45;2.25;;;31.50;55.30;;;;;;4881394;29;20057;-90
2022/07/03 12:49:13;;;;;;;7.30;2.85;;;31.50;56.10;;;;;;4901990;29;20028;-87
2022/07/03 12:51:48;;;;;;;2.60;2.40;;;31.40;55.90;;;;;;4870494;29;20029;-85
2022/07/03 12:54:20;;;;;;;2.83;2.63;;;31.40;55.80;;;;;;4879898;29;20036;-89
2022/07/03 12:59:16;;;;;;;3.20;2.70;;;31.50;57.10;;;;;;4886163;29;20134;-77
2022/07/03 13:00:02;;;;;;;2.35;2.22;;;31.60;56.40;;;;;;4881540;29;20044;-76
2022/07/03 13:02:28;;;;;;;3.20;2.28;;;31.60;55.20;;;;;;4881642;29;20088;-85
2022/07/03 13:04:55;;;;;;;2.22;2.10;;;31.60;54.50;;;;;;4884658;29;20039;-89
2022/07/03 13:07:21;;;;;;;2.15;2.00;;;31.50;55.50;;;;;;4883039;29;20522;-87
2022/07/03 13:09:53;;;;;;;2.30;2.20;;;31.50;56.30;;;;;;4881429;29;20068;-85
2022/07/03 13:12:23;;;;;;;2.95;2.33;;;31.50;56.70;;;;;;4898138;29;20025;-83
2022/07/03 13:14:58;;;;;;;2.13;1.92;;;31.60;55.90;;;;;;4879302;29;20017;-84
2022/07/03 13:17:44;;;;;;;3.97;2.35;;;31.70;56.30;;;;;;4873806;29;20085;-85
2022/07/03 13:20:10;;;;;;;3.07;2.60;;;31.80;56.40;;;;;;4875399;29;20033;-87
2022/07/03 13:22:38;;;;;;;2.10;2.00;;;31.90;55.40;;;;;;4866363;29;20489;-89
2022/07/03 13:25:04;;;;;;;2.20;2.10;;;31.80;55.90;;;;;;4878643;29;20028;-86
2022/07/03 13:27:31;;;;;;;3.63;2.58;;;31.60;56.30;;;;;;4871460;29;20478;-85
2022/07/03 13:29:57;;;;;;;3.05;2.30;;;31.60;56.10;;;;;;4878588;29;20032;-86
2022/07/03 13:32:22;;;;;;;3.53;2.50;;;31.60;56.10;;;;;;4877761;29;20037;-86
2022/07/03 13:34:51;;;;;;;2.30;2.17;;;31.40;57.20;;;;;;4868629;29;20029;-83